createdAt,value
2019-03-17T00:02:15.931Z,2.67
2019-03-17T00:08:21.831Z,2.23
2019-03-17T00:14:27.523Z,3.10
2019-03-17T00:20:33.288Z,2.20
2019-03-17T00:26:39.165Z,2.70
2019-03-17T00:32:44.941Z,2.67
2019-03-17T00:38:50.688Z,1.63
2019-03-17T00:44:56.446Z,2.30
2019-03-17T00:51:02.253Z,2.07
2019-03-17T00:57:08.118Z,1.90
2019-03-17T01:03:13.892Z,2.93
2019-03-17T01:09:19.607Z,1.87
2019-03-17T01:15:25.727Z,2.10
2019-03-17T01:21:31.616Z,2.20
2019-03-17T01:27:37.417Z,1.97
2019-03-17T01:33:43.148Z,2.30
2019-03-17T01:39:48.901Z,2.63
2019-03-17T01:45:54.670Z,2.40
2019-03-17T01:52:00.550Z,1.97
2019-03-17T01:58:06.398Z,2.77
2019-03-17T02:04:12.400Z,2.00
2019-03-17T02:10:18.362Z,3.27
2019-03-17T02:16:24.193Z,2.37
2019-03-17T02:22:29.966Z,2.30
2019-03-17T02:28:35.857Z,3.80
2019-03-17T02:34:41.648Z,2.63
2019-03-17T02:40:47.441Z,2.30
2019-03-17T02:46:53.257Z,3.03
2019-03-17T02:52:59.132Z,3.07
2019-03-17T02:59:04.889Z,4.53
2019-03-17T03:05:11.328Z,5.80
2019-03-17T03:11:17.123Z,5.83
2019-03-17T03:17:22.859Z,2.90
2019-03-17T03:23:28.582Z,5.80
2019-03-17T03:29:34.479Z,2.80
2019-03-17T03:35:40.190Z,4.50
2019-03-17T03:41:45.903Z,2.80
2019-03-17T03:47:51.657Z,3.00
2019-03-17T03:53:57.352Z,7.43
2019-03-17T04:00:03.066Z,3.97
2019-03-17T04:06:08.761Z,5.80
2019-03-17T04:12:14.513Z,8.87
2019-03-17T04:18:20.525Z,6.53
2019-03-17T04:24:26.276Z,5.37
2019-03-17T04:30:32.055Z,5.83
2019-03-17T04:36:40.545Z,5.27
2019-03-17T04:42:45.340Z,7.30
2019-03-17T04:48:51.163Z,3.70
2019-03-17T04:54:56.935Z,7.60
2019-03-17T05:01:02.744Z,6.27
2019-03-17T05:07:08.436Z,10.23
2019-03-17T05:13:14.164Z,7.00
2019-03-17T05:19:19.904Z,10.00
2019-03-17T05:25:25.656Z,7.40
2019-03-17T05:31:31.491Z,9.23
2019-03-17T05:37:37.212Z,4.43
2019-03-17T05:43:42.983Z,8.07
2019-03-17T05:49:48.677Z,5.73
2019-03-17T05:55:54.380Z,5.83
2019-03-17T06:02:00.069Z,7.00
2019-03-17T06:08:05.791Z,6.40
2019-03-17T06:14:11.527Z,10.30
2019-03-17T06:20:17.265Z,6.20
2019-03-17T06:26:23.035Z,4.67
2019-03-17T06:32:28.788Z,8.07
2019-03-17T06:38:34.531Z,5.97
2019-03-17T06:44:40.257Z,6.27
2019-03-17T06:50:46.044Z,7.10
2019-03-17T06:56:51.811Z,6.80
2019-03-17T07:02:57.551Z,5.27
2019-03-17T07:09:04.470Z,5.13
2019-03-17T07:15:10.296Z,4.07
2019-03-17T07:21:16.085Z,5.90
2019-03-17T07:27:21.834Z,4.53
2019-03-17T07:33:27.585Z,1.80
2019-03-17T07:39:33.616Z,1.23
2019-03-17T07:45:39.582Z,3.53
2019-03-17T07:51:45.577Z,3.50
2019-03-17T07:57:51.478Z,2.33
2019-03-17T08:03:57.322Z,1.07
2019-03-17T08:10:03.082Z,1.20
2019-03-17T08:16:08.774Z,1.53
2019-03-17T08:22:14.566Z,2.33
2019-03-17T08:28:20.361Z,0.90
2019-03-17T08:34:26.277Z,1.60
2019-03-17T08:40:32.108Z,1.87
2019-03-17T08:46:37.912Z,2.83
2019-03-17T08:52:43.916Z,5.10
2019-03-17T08:58:49.722Z,4.53
2019-03-17T09:04:55.579Z,3.07
2019-03-17T09:11:01.271Z,3.63
2019-03-17T09:17:14.413Z,5.93
2019-03-17T09:23:14.541Z,11.10
2019-03-17T09:29:20.359Z,5.13
2019-03-17T09:35:26.093Z,3.57
2019-03-17T09:41:31.826Z,3.13
2019-03-17T09:47:37.640Z,3.17
2019-03-17T09:53:43.405Z,3.67
2019-03-17T09:59:49.241Z,4.63
2019-03-17T10:05:55.009Z,3.03
2019-03-17T10:12:00.832Z,3.87
2019-03-17T10:18:06.741Z,4.17
2019-03-17T10:24:12.506Z,3.70
2019-03-17T10:30:18.807Z,3.80
2019-03-17T10:36:24.755Z,2.20
2019-03-17T10:42:30.512Z,3.33
2019-03-17T10:48:36.366Z,4.90
2019-03-17T10:54:42.262Z,4.27
2019-03-17T11:00:47.988Z,3.00
2019-03-17T11:06:53.901Z,3.03
2019-03-17T11:12:59.689Z,2.70
2019-03-17T11:19:05.479Z,3.00
2019-03-17T11:25:11.467Z,2.73
2019-03-17T11:31:17.221Z,1.30
2019-03-17T11:37:23.693Z,1.00
2019-03-17T11:43:30.764Z,1.17
2019-03-17T11:49:36.857Z,1.40
2019-03-17T11:55:42.578Z,1.27
2019-03-17T12:01:48.379Z,1.27
2019-03-17T12:07:54.370Z,1.23
2019-03-17T12:14:02.082Z,1.80
2019-03-17T12:20:09.110Z,0.80
2019-03-17T12:26:14.937Z,0.87
2019-03-17T12:32:21.134Z,0.80
2019-03-17T12:38:26.899Z,1.27
2019-03-17T12:44:32.884Z,1.33
2019-03-17T12:50:38.639Z,0.93
2019-03-17T12:56:44.476Z,1.90
2019-03-17T13:02:50.427Z,2.33
2019-03-17T13:08:56.287Z,3.73
2019-03-17T13:15:02.367Z,7.10
2019-03-17T13:21:08.280Z,1.87
2019-03-17T13:27:14.231Z,0.93
2019-03-17T13:33:20.042Z,0.77
2019-03-17T13:39:25.926Z,0.67
2019-03-17T13:45:31.718Z,0.50
2019-03-17T13:51:37.664Z,0.73
2019-03-17T13:57:44.234Z,0.73
2019-03-17T14:03:50.054Z,3.33
2019-03-17T14:09:56.022Z,3.33
2019-03-17T14:16:01.976Z,1.03
2019-03-17T14:22:07.849Z,0.80
2019-03-17T14:28:13.837Z,0.97
2019-03-17T14:34:19.901Z,0.50
2019-03-17T14:40:25.735Z,1.03
2019-03-17T14:46:31.464Z,0.57
2019-03-17T14:52:38.137Z,0.90
2019-03-17T14:58:43.943Z,1.23
2019-03-17T15:04:49.761Z,1.40
2019-03-17T15:11:05.344Z,0.97
2019-03-17T15:17:03.077Z,0.70
2019-03-17T15:23:09.269Z,2.33
2019-03-17T15:29:17.061Z,0.60
2019-03-17T15:35:22.821Z,0.87
2019-03-17T15:41:28.798Z,1.73
2019-03-17T15:47:34.605Z,1.23
2019-03-17T15:53:40.616Z,1.27
2019-03-17T15:59:48.592Z,0.90
2019-03-17T16:05:54.392Z,3.27
2019-03-17T16:12:00.590Z,0.73
2019-03-17T16:18:06.405Z,1.30
2019-03-17T16:24:12.402Z,1.67
2019-03-17T16:30:21.081Z,2.00
2019-03-17T16:36:26.983Z,0.87
2019-03-17T16:42:33.092Z,2.67
2019-03-17T16:48:38.849Z,0.93
2019-03-17T16:54:44.611Z,0.70
2019-03-17T17:00:50.374Z,1.50
2019-03-17T17:06:56.158Z,3.10
2019-03-17T17:13:02.190Z,2.80
2019-03-17T17:19:08.177Z,1.00
2019-03-17T17:25:14.000Z,3.33
2019-03-17T17:31:20.117Z,3.33
2019-03-17T17:37:26.030Z,4.37
2019-03-17T17:43:31.976Z,3.97
2019-03-17T17:49:37.744Z,1.70
2019-03-17T17:55:43.531Z,1.50
2019-03-17T18:01:49.342Z,1.80
2019-03-17T18:07:55.463Z,1.77
2019-03-17T18:14:01.305Z,3.03
2019-03-17T18:20:08.185Z,2.47
2019-03-17T18:26:14.067Z,4.27
2019-03-17T18:32:20.140Z,1.47
2019-03-17T18:38:26.005Z,2.70
2019-03-17T18:44:32.417Z,1.10
2019-03-17T18:50:38.334Z,1.60
2019-03-17T18:56:44.535Z,1.80
2019-03-17T19:02:50.603Z,1.20
2019-03-17T19:08:56.624Z,3.33
2019-03-17T19:15:02.503Z,1.27
2019-03-17T19:21:08.645Z,2.13
2019-03-17T19:27:14.470Z,0.80
2019-03-17T19:33:20.304Z,1.00
2019-03-17T19:39:26.342Z,2.40
2019-03-17T19:45:32.376Z,2.03
2019-03-17T19:51:38.975Z,1.90
2019-03-17T19:57:44.921Z,2.83
2019-03-17T20:03:50.985Z,1.50
2019-03-17T20:09:56.906Z,1.83
2019-03-17T20:16:02.913Z,1.10
2019-03-17T20:22:08.817Z,1.10
2019-03-17T20:28:15.019Z,1.83
2019-03-17T20:34:20.831Z,1.83
2019-03-17T20:40:26.669Z,2.97
2019-03-17T20:46:32.778Z,1.07
2019-03-17T20:52:38.792Z,3.80
2019-03-17T20:58:44.689Z,1.27
2019-03-17T21:04:50.657Z,1.87
2019-03-17T21:10:56.460Z,2.67
2019-03-17T21:17:02.325Z,1.10
2019-03-17T21:23:08.111Z,1.03
2019-03-17T21:29:14.259Z,1.27
2019-03-17T21:35:21.013Z,1.97
2019-03-17T21:41:27.811Z,1.37
2019-03-17T21:47:33.819Z,1.40
2019-03-17T21:53:39.598Z,1.40
2019-03-17T21:59:45.481Z,2.30
2019-03-17T22:05:51.325Z,1.30
2019-03-17T22:11:57.124Z,1.60
2019-03-17T22:18:02.916Z,2.00
2019-03-17T22:24:08.698Z,1.97
2019-03-17T22:30:14.899Z,1.40
2019-03-17T22:36:20.660Z,2.63
2019-03-17T22:42:26.601Z,1.47
2019-03-17T22:48:32.399Z,1.47
2019-03-17T22:54:38.261Z,1.20
2019-03-17T23:00:45.397Z,2.27
2019-03-17T23:06:51.130Z,1.67
2019-03-17T23:12:56.927Z,1.80
2019-03-17T23:19:02.700Z,1.63
2019-03-17T23:25:09.002Z,2.33
2019-03-17T23:31:14.800Z,3.10
2019-03-17T23:37:20.575Z,1.93
2019-03-17T23:43:26.293Z,2.43
2019-03-17T23:49:32.112Z,3.17
2019-03-17T23:55:37.806Z,3.97
